BIM weather

South Bimini Airport
South Bimini, Bimini, Bahamas

Public forecast

Using degrees Celsius for public forecast. Weather courtesy of forecast.io.

Closest aviation weather report (METAR) to South Bimini Airport

Closest report is Fort Lauderdale Hollywood International Airport, 52.9 nm (98.0 km) WNW. Retrieved 2020/01/28 05:53 UTC (45 minutes ago):

KFLL 280553Z 00000KT 10SM FEW023 BKN060 19/14 A2990 RMK AO2 SLP124 T01890139 10217 20178 58006

Closest aviation forecast (TAF) to South Bimini Airport

Closest forecast is Fort Lauderdale Hollywood International Airport, 52.9 nm (98.0 km) WNW. Retrieved 2020/01/28 06:57 UTC (0 seconds ago):

TAF KFLL 280550Z 2806/2912 23005KT P6SM SCT030 BKN045 TEMPO 2806/2808 BKN035 FM280800 32007KT P6SM FEW010 SCT020 BKN060 FM281500 03010KT P6SM SCT030 BKN050 FM290100 07005KT P6SM SCT030 SCT050 FM290800 06005KT P6SM SCT030 BKN050